Time;durP1;ratioP1;P1;durP2;ratioP2;P2;SDS_P1;SDS_P2;PMS_P1;PMS_P2;Temp;Humidity;BMP_temperature;BMP_pressure;BME280_temperature;BME280_humidity;BME280_pressure;Samples;Min_cycle;Max_cycle;Signal;HPM_P1;HPM_P2
2021/06/09 00:01:31;;;;;;;2.05;1.60;;;;;;;;;;5075172;28;20430;-78
2021/06/09 00:03:57;;;;;;;1.80;1.70;;;;;;;;;;5074737;28;20457;-79
2021/06/09 00:06:23;;;;;;;2.40;1.67;;;;;;;;;;5069591;28;20377;-76
2021/06/09 00:08:49;;;;;;;2.53;1.80;;;;;;;;;;5069781;28;20713;-80
2021/06/09 00:11:15;;;;;;;1.90;1.63;;;;;;;;;;5069349;28;20369;-77
2021/06/09 00:13:41;;;;;;;2.85;1.90;;;;;;;;;;5051425;28;20740;-77
2021/06/09 00:16:10;;;;;;;2.17;1.90;;;;;;;;;;5071503;28;20374;-79
2021/06/09 00:18:36;;;;;;;2.30;1.70;;;;;;;;;;5077420;28;20402;-79
2021/06/09 00:21:02;;;;;;;4.00;1.80;;;;;;;;;;5069051;28;20927;-77
2021/06/09 00:23:30;;;;;;;3.40;1.63;;;;;;;;;;5069099;28;20366;-77
2021/06/09 00:26:00;;;;;;;2.63;1.67;;;;;;;;;;5069172;28;20427;-77
2021/06/09 00:28:26;;;;;;;2.85;1.90;;;;;;;;;;5051169;28;20452;-77
2021/06/09 00:30:53;;;;;;;2.28;1.80;;;;;;;;;;5052699;28;20423;-79
2021/06/09 00:33:19;;;;;;;2.43;1.70;;;;;;;;;;5059483;28;20726;-78
2021/06/09 00:35:45;;;;;;;2.63;1.80;;;;;;;;;;5051016;28;20380;-79
2021/06/09 00:38:11;;;;;;;2.07;1.67;;;;;;;;;;5069571;28;20379;-79
2021/06/09 00:40:37;;;;;;;2.03;1.90;;;;;;;;;;5068677;28;20385;-79
2021/06/09 00:43:06;;;;;;;2.15;1.95;;;;;;;;;;5068717;28;21240;-77
2021/06/09 00:45:33;;;;;;;3.22;2.10;;;;;;;;;;5070231;28;20406;-79
2021/06/09 00:47:59;;;;;;;3.47;2.00;;;;;;;;;;5078062;28;20464;-79
2021/06/09 00:50:25;;;;;;;2.33;1.80;;;;;;;;;;5068797;28;20770;-79
2021/06/09 00:52:51;;;;;;;2.05;1.90;;;;;;;;;;5068823;28;20374;-80
2021/06/09 00:55:17;;;;;;;3.53;1.92;;;;;;;;;;5068796;28;20373;-78
2021/06/09 00:57:43;;;;;;;2.38;2.00;;;;;;;;;;5068976;28;20875;-76
2021/06/09 01:00:10;;;;;;;2.30;2.10;;;;;;;;;;5050109;28;20402;-79
2021/06/09 01:02:37;;;;;;;2.13;1.80;;;;;;;;;;5077156;28;20364;-78
2021/06/09 01:05:04;;;;;;;2.65;1.98;;;;;;;;;;5089075;28;20459;-79
2021/06/09 01:07:30;;;;;;;4.40;2.00;;;;;;;;;;5088796;28;20423;-79
2021/06/09 01:09:56;;;;;;;2.50;1.80;;;;;;;;;;5089010;28;20391;-79
2021/06/09 01:12:22;;;;;;;2.20;2.00;;;;;;;;;;5088527;28;20384;-79
2021/06/09 01:14:48;;;;;;;3.53;1.83;;;;;;;;;;5070879;28;20780;-77
2021/06/09 01:17:14;;;;;;;2.05;1.95;;;;;;;;;;5064149;28;20492;-78
2021/06/09 01:19:40;;;;;;;3.50;1.98;;;;;;;;;;5068765;28;20367;-77
2021/06/09 01:22:06;;;;;;;2.25;1.90;;;;;;;;;;5068218;28;20713;-79
2021/06/09 01:24:32;;;;;;;3.80;2.08;;;;;;;;;;5068608;28;20389;-78
2021/06/09 01:26:58;;;;;;;3.15;2.00;;;;;;;;;;5068292;28;20374;-79
2021/06/09 01:29:26;;;;;;;2.33;1.92;;;;;;;;;;5068399;28;20489;-80
2021/06/09 01:31:52;;;;;;;2.27;2.07;;;;;;;;;;5075354;28;20408;-80
2021/06/09 01:34:18;;;;;;;1.90;1.80;;;;;;;;;;5072044;28;20369;-80
2021/06/09 01:36:44;;;;;;;2.20;1.92;;;;;;;;;;5068884;28;20776;-77
2021/06/09 01:39:12;;;;;;;2.60;2.00;;;;;;;;;;5072465;28;20871;-77
2021/06/09 01:41:48;;;;;;;3.45;2.22;;;;;;;;;;5053949;28;20373;-80
2021/06/09 01:44:14;;;;;;;2.95;1.80;;;;;;;;;;5072328;28;20363;-80
2021/06/09 01:46:41;;;;;;;2.80;2.10;;;;;;;;;;5072182;28;20449;-77
2021/06/09 01:49:08;;;;;;;1.92;1.83;;;;;;;;;;5072109;28;20791;-77
2021/06/09 01:51:34;;;;;;;3.30;2.30;;;;;;;;;;5071819;28;20443;-76
2021/06/09 01:54:01;;;;;;;2.17;1.92;;;;;;;;;;5072059;28;20393;-77
2021/06/09 01:56:27;;;;;;;2.05;1.90;;;;;;;;;;5071624;28;20728;-77
2021/06/09 01:58:53;;;;;;;2.33;2.08;;;;;;;;;;5053848;28;20389;-76
2021/06/09 02:01:19;;;;;;;3.45;2.28;;;;;;;;;;5071692;28;20362;-79
2021/06/09 02:03:46;;;;;;;3.07;2.00;;;;;;;;;;5071826;28;20876;-78
2021/06/09 02:06:12;;;;;;;2.40;2.20;;;;;;;;;;5071622;28;20377;-79
2021/06/09 02:08:38;;;;;;;3.38;2.20;;;;;;;;;;5071451;28;20768;-76
2021/06/09 02:11:04;;;;;;;2.40;2.10;;;;;;;;;;5071603;28;20448;-79
2021/06/09 02:13:31;;;;;;;2.95;2.30;;;;;;;;;;5071315;28;20389;-77
2021/06/09 02:15:57;;;;;;;2.65;2.25;;;;;;;;;;5071529;28;20718;-76
2021/06/09 02:18:26;;;;;;;3.75;1.95;;;;;;;;;;5071624;28;20370;-77
2021/06/09 02:20:57;;;;;;;3.00;2.40;;;;;;;;;;5053105;28;20390;-76
2021/06/09 02:23:35;;;;;;;3.60;2.40;;;;;;;;;;5070137;28;20385;-80
2021/06/09 02:26:01;;;;;;;2.22;2.03;;;;;;;;;;5052229;28;20424;-81
2021/06/09 02:28:29;;;;;;;2.75;2.30;;;;;;;;;;5070204;28;20394;-77
2021/06/09 02:30:55;;;;;;;2.50;2.28;;;;;;;;;;5070537;28;20378;-78
2021/06/09 02:33:22;;;;;;;2.60;2.03;;;;;;;;;;5070103;28;20729;-77
2021/06/09 02:35:50;;;;;;;2.78;2.47;;;;;;;;;;5070089;28;20940;-79
2021/06/09 02:38:16;;;;;;;3.40;2.37;;;;;;;;;;5070248;28;20398;-78
2021/06/09 02:40:45;;;;;;;3.15;2.30;;;;;;;;;;5070066;28;20370;-80
2021/06/09 02:43:11;;;;;;;2.38;2.15;;;;;;;;;;5070049;28;20358;-77
2021/06/09 02:45:37;;;;;;;2.33;1.98;;;;;;;;;;5070000;28;20407;-81
2021/06/09 02:48:07;;;;;;;2.50;2.30;;;;;;;;;;5069203;28;20463;-78
2021/06/09 02:50:33;;;;;;;2.78;2.58;;;;;;;;;;5069239;28;20378;-78
2021/06/09 02:53:09;;;;;;;3.00;2.10;;;;;;;;;;5069745;28;20370;-80
2021/06/09 02:55:51;;;;;;;2.53;2.22;;;;;;;;;;5069824;28;20773;-77
2021/06/09 02:58:23;;;;;;;3.70;2.43;;;;;;;;;;5069692;28;20413;-79
2021/06/09 03:00:58;;;;;;;3.97;2.40;;;;;;;;;;5069721;28;20366;-78
2021/06/09 03:03:24;;;;;;;2.95;2.30;;;;;;;;;;5070028;28;20560;-79
2021/06/09 03:05:50;;;;;;;4.05;2.45;;;;;;;;;;5061433;28;20822;-79
2021/06/09 03:08:27;;;;;;;2.80;2.47;;;;;;;;;;5069455;28;20856;-79
2021/06/09 03:11:16;;;;;;;2.93;2.30;;;;;;;;;;5069649;28;20430;-76
2021/06/09 03:13:54;;;;;;;3.88;2.58;;;;;;;;;;5069397;28;20466;-80
2021/06/09 03:16:24;;;;;;;3.17;2.60;;;;;;;;;;5051417;28;20370;-78
2021/06/09 03:18:51;;;;;;;6.30;2.53;;;;;;;;;;5069665;28;20404;-80
2021/06/09 03:21:19;;;;;;;40.67;5.85;;;;;;;;;;5034604;28;753688;-79
2021/06/09 03:23:45;;;;;;;34.58;4.88;;;;;;;;;;5060155;28;20394;-78
2021/06/09 03:26:26;;;;;;;16.48;3.22;;;;;;;;;;5070375;28;20917;-78
2021/06/09 03:29:10;;;;;;;12.60;3.45;;;;;;;;;;5070169;28;20413;-78
2021/06/09 03:31:38;;;;;;;20.83;3.95;;;;;;;;;;5070095;28;20370;-79
2021/06/09 03:34:07;;;;;;;8.07;2.75;;;;;;;;;;5069916;28;20461;-80
2021/06/09 03:36:37;;;;;;;10.13;3.00;;;;;;;;;;5069966;28;20413;-78
2021/06/09 03:39:05;;;;;;;10.05;2.97;;;;;;;;;;5069929;28;20397;-78
2021/06/09 03:41:35;;;;;;;19.50;3.63;;;;;;;;;;5069754;28;20366;-76
2021/06/09 03:44:02;;;;;;;10.00;3.72;;;;;;;;;;5069882;28;20358;-79
2021/06/09 03:46:28;;;;;;;15.63;3.47;;;;;;;;;;5069969;28;20453;-78
2021/06/09 03:48:55;;;;;;;16.77;3.60;;;;;;;;;;5051419;28;20730;-78
2021/06/09 03:51:23;;;;;;;15.30;3.75;;;;;;;;;;5069704;28;20414;-77
2021/06/09 03:53:49;;;;;;;5.25;2.65;;;;;;;;;;5069673;28;20416;-77
2021/06/09 03:56:15;;;;;;;2.50;2.20;;;;;;;;;;5051851;28;20382;-80
2021/06/09 03:58:42;;;;;;;5.07;2.50;;;;;;;;;;5069498;28;20432;-80
2021/06/09 04:01:09;;;;;;;4.95;2.55;;;;;;;;;;5069219;28;20369;-77
2021/06/09 04:03:36;;;;;;;3.30;2.40;;;;;;;;;;5069318;28;20382;-78
2021/06/09 04:06:02;;;;;;;4.10;2.90;;;;;;;;;;5069714;28;20381;-79
2021/06/09 04:08:30;;;;;;;2.67;2.47;;;;;;;;;;5069235;28;20772;-78
2021/06/09 04:10:56;;;;;;;3.45;2.17;;;;;;;;;;5069657;28;20370;-80
2021/06/09 04:13:22;;;;;;;2.45;2.25;;;;;;;;;;5069432;28;20365;-79
2021/06/09 04:15:50;;;;;;;2.90;2.20;;;;;;;;;;5069364;28;20378;-77
2021/06/09 04:18:17;;;;;;;3.90;2.50;;;;;;;;;;5069308;28;20423;-80
2021/06/09 04:20:43;;;;;;;3.38;2.20;;;;;;;;;;5069132;28;20420;-81
2021/06/09 04:23:10;;;;;;;2.63;2.20;;;;;;;;;;5069074;28;20383;-79
2021/06/09 04:25:36;;;;;;;2.83;2.40;;;;;;;;;;5069097;28;20374;-79
2021/06/09 04:28:03;;;;;;;3.57;2.40;;;;;;;;;;5069014;28;20872;-79
2021/06/09 04:30:29;;;;;;;3.97;2.50;;;;;;;;;;5068832;28;20366;-81
2021/06/09 04:32:55;;;;;;;3.08;2.30;;;;;;;;;;5069317;28;20366;-80
2021/06/09 04:35:35;;;;;;;8.05;3.05;;;;;;;;;;5069241;28;20401;-79
2021/06/09 04:38:01;;;;;;;7.78;2.75;;;;;;;;;;5069572;28;20440;-80
2021/06/09 04:40:28;;;;;;;7.13;2.80;;;;;;;;;;5069088;28;20374;-78
2021/06/09 04:42:55;;;;;;;8.48;2.53;;;;;;;;;;5068750;28;20787;-80
2021/06/09 04:45:22;;;;;;;5.20;2.70;;;;;;;;;;5068848;28;20452;-81
2021/06/09 04:47:49;;;;;;;4.90;2.30;;;;;;;;;;5069106;28;20779;-81
2021/06/09 04:50:18;;;;;;;2.72;2.10;;;;;;;;;;5068891;28;20428;-81
2021/06/09 04:52:45;;;;;;;5.38;2.20;;;;;;;;;;5068667;28;20409;-77
2021/06/09 04:55:11;;;;;;;2.92;2.20;;;;;;;;;;5050930;28;20915;-79
2021/06/09 04:57:37;;;;;;;2.30;2.10;;;;;;;;;;5068675;28;20776;-80
2021/06/09 05:00:05;;;;;;;2.17;1.98;;;;;;;;;;5068789;28;20398;-77
2021/06/09 05:02:31;;;;;;;1.80;1.70;;;;;;;;;;5068674;28;20375;-79
2021/06/09 05:04:57;;;;;;;4.10;2.07;;;;;;;;;;5068733;28;20451;-80
2021/06/09 05:07:23;;;;;;;2.20;1.90;;;;;;;;;;5069009;28;20405;-80
2021/06/09 05:09:49;;;;;;;2.30;1.92;;;;;;;;;;5068738;28;20440;-77
2021/06/09 05:12:24;;;;;;;3.58;2.00;;;;;;;;;;5069839;28;20419;-80
2021/06/09 05:15:04;;;;;;;3.10;1.90;;;;;;;;;;5072789;28;20453;-80
2021/06/09 05:17:48;;;;;;;2.60;1.88;;;;;;;;;;5055069;28;20887;-77
2021/06/09 05:20:17;;;;;;;2.20;1.80;;;;;;;;;;5072790;28;20388;-78
2021/06/09 05:22:45;;;;;;;3.15;2.20;;;;;;;;;;5054524;28;21490;-77
2021/06/09 05:25:12;;;;;;;2.50;2.10;;;;;;;;;;5072583;28;20436;-79
2021/06/09 05:27:38;;;;;;;2.35;2.00;;;;;;;;;;5072505;28;20778;-82
2021/06/09 05:30:05;;;;;;;1.90;1.70;;;;;;;;;;5072763;28;20416;-80
2021/06/09 05:32:31;;;;;;;4.53;1.92;;;;;;;;;;5072657;28;20772;-78
2021/06/09 05:34:58;;;;;;;1.60;1.50;;;;;;;;;;5072424;28;20376;-79
2021/06/09 05:37:24;;;;;;;2.47;1.65;;;;;;;;;;5072402;28;20449;-82
2021/06/09 05:39:54;;;;;;;2.75;1.90;;;;;;;;;;5064765;28;20428;-79
2021/06/09 05:42:20;;;;;;;4.88;1.90;;;;;;;;;;5072167;28;20428;-79
2021/06/09 05:44:53;;;;;;;4.07;1.60;;;;;;;;;;5072276;28;20385;-78
2021/06/09 05:47:19;;;;;;;3.45;1.63;;;;;;;;;;5072341;28;20409;-78
2021/06/09 05:49:45;;;;;;;3.05;1.80;;;;;;;;;;5071901;28;20449;-79
2021/06/09 05:52:12;;;;;;;3.53;2.10;;;;;;;;;;5072046;28;20366;-79
2021/06/09 05:54:39;;;;;;;4.15;1.52;;;;;;;;;;5072022;28;20385;-79
2021/06/09 05:57:06;;;;;;;2.40;1.67;;;;;;;;;;5072424;28;20492;-81
2021/06/09 05:59:33;;;;;;;2.60;1.38;;;;;;;;;;5071941;28;21014;-79
2021/06/09 06:01:59;;;;;;;4.00;1.70;;;;;;;;;;5071849;28;20461;-78
2021/06/09 06:04:25;;;;;;;1.98;1.50;;;;;;;;;;5072001;28;20473;-80
2021/06/09 06:06:51;;;;;;;4.10;1.60;;;;;;;;;;5071826;28;20374;-82
2021/06/09 06:09:17;;;;;;;2.25;1.60;;;;;;;;;;5071777;28;20402;-78
2021/06/09 06:11:44;;;;;;;18.58;3.92;;;;;;;;;;5071635;28;20366;-78
2021/06/09 06:14:12;;;;;;;8.15;2.33;;;;;;;;;;5071833;28;20366;-79
2021/06/09 06:16:39;;;;;;;1.60;1.35;;;;;;;;;;5071694;28;20377;-79
2021/06/09 06:19:05;;;;;;;5.03;2.13;;;;;;;;;;5071317;28;20464;-79
2021/06/09 06:21:32;;;;;;;2.58;1.60;;;;;;;;;;5071437;28;20378;-79
2021/06/09 06:23:58;;;;;;;15.68;2.83;;;;;;;;;;5071238;28;20374;-80
2021/06/09 06:26:24;;;;;;;6.00;1.40;;;;;;;;;;5071423;28;20377;-79
2021/06/09 06:28:52;;;;;;;4.05;1.75;;;;;;;;;;5063149;28;20401;-77
2021/06/09 06:31:25;;;;;;;6.73;1.77;;;;;;;;;;5071378;28;20469;-79
2021/06/09 06:33:53;;;;;;;3.93;1.90;;;;;;;;;;5053433;28;20385;-79
2021/06/09 06:36:21;;;;;;;1.70;1.25;;;;;;;;;;5071207;28;20477;-80
2021/06/09 06:38:47;;;;;;;2.67;1.40;;;;;;;;;;5071350;28;20370;-80
2021/06/09 06:41:14;;;;;;;2.05;1.50;;;;;;;;;;5078815;28;20388;-83
2021/06/09 06:43:40;;;;;;;2.10;1.48;;;;;;;;;;5091205;28;20365;-77
2021/06/09 06:46:10;;;;;;;3.20;1.77;;;;;;;;;;5091062;28;20452;-77
2021/06/09 06:48:36;;;;;;;3.17;1.40;;;;;;;;;;5091124;28;20531;-80
2021/06/09 06:51:02;;;;;;;3.50;1.80;;;;;;;;;;5086512;28;20380;-79
2021/06/09 06:53:30;;;;;;;1.40;1.30;;;;;;;;;;5083964;28;20372;-81
2021/06/09 06:55:59;;;;;;;3.77;1.63;;;;;;;;;;5078715;28;20362;-79
2021/06/09 06:58:27;;;;;;;4.85;1.60;;;;;;;;;;5081309;28;20459;-81
2021/06/09 07:00:53;;;;;;;2.08;1.50;;;;;;;;;;5072120;28;20945;-78
2021/06/09 07:03:19;;;;;;;2.05;1.70;;;;;;;;;;5086744;28;20411;-79
2021/06/09 07:05:46;;;;;;;3.13;1.60;;;;;;;;;;5088812;28;20376;-81
2021/06/09 07:08:12;;;;;;;3.83;1.50;;;;;;;;;;5090707;28;20766;-79
2021/06/09 07:10:40;;;;;;;3.00;1.40;;;;;;;;;;5072412;28;20448;-79
2021/06/09 07:13:06;;;;;;;2.60;1.50;;;;;;;;;;5072252;28;20867;-81
2021/06/09 07:15:33;;;;;;;2.05;1.50;;;;;;;;;;5090993;28;20380;-85
2021/06/09 07:18:01;;;;;;;2.40;1.42;;;;;;;;;;5089739;28;20866;-82
2021/06/09 07:20:29;;;;;;;6.18;1.90;;;;;;;;;;5081213;28;20450;-80
2021/06/09 07:22:56;;;;;;;2.88;1.58;;;;;;;;;;5088186;28;20368;-80
2021/06/09 07:25:23;;;;;;;2.80;1.40;;;;;;;;;;5089656;28;20369;-81
2021/06/09 07:27:58;;;;;;;2.20;1.40;;;;;;;;;;5089989;28;20380;-81
2021/06/09 07:30:27;;;;;;;2.75;1.50;;;;;;;;;;5090345;28;20357;-81
2021/06/09 07:32:53;;;;;;;2.72;1.52;;;;;;;;;;5091096;28;20360;-86
2021/06/09 07:35:19;;;;;;;2.50;1.40;;;;;;;;;;5090143;28;20368;-80
2021/06/09 07:37:47;;;;;;;1.40;1.30;;;;;;;;;;5090368;28;20446;-80
2021/06/09 07:40:17;;;;;;;1.70;1.20;;;;;;;;;;5089425;28;20376;-79
2021/06/09 07:42:47;;;;;;;2.67;1.50;;;;;;;;;;5089964;28;20889;-84
2021/06/09 07:45:14;;;;;;;2.28;1.33;;;;;;;;;;5090056;28;20386;-82
2021/06/09 07:47:44;;;;;;;2.55;1.45;;;;;;;;;;5089678;28;20843;-87
2021/06/09 07:50:13;;;;;;;7.63;1.98;;;;;;;;;;5089268;28;20388;-81
2021/06/09 07:52:40;;;;;;;2.83;1.60;;;;;;;;;;5089065;28;20364;-81
2021/06/09 07:55:06;;;;;;;2.70;1.52;;;;;;;;;;5088802;28;20708;-85
2021/06/09 07:57:35;;;;;;;3.78;1.90;;;;;;;;;;5089604;28;20384;-76
2021/06/09 08:00:02;;;;;;;2.80;1.40;;;;;;;;;;5089969;28;20375;-79
2021/06/09 08:02:28;;;;;;;3.92;1.67;;;;;;;;;;5071004;28;20904;-83
2021/06/09 08:04:54;;;;;;;2.60;1.70;;;;;;;;;;5089742;28;20418;-80
2021/06/09 08:07:20;;;;;;;1.83;1.48;;;;;;;;;;5089430;28;20467;-78
2021/06/09 08:09:46;;;;;;;3.22;1.70;;;;;;;;;;5089393;28;20518;-84
2021/06/09 08:12:13;;;;;;;2.85;1.67;;;;;;;;;;5089305;28;20368;-87
2021/06/09 08:14:39;;;;;;;5.13;1.73;;;;;;;;;;5070515;28;20770;-82
2021/06/09 08:17:08;;;;;;;6.70;1.77;;;;;;;;;;5082574;28;20384;-80
2021/06/09 08:19:34;;;;;;;3.53;1.63;;;;;;;;;;5091370;28;20973;-87
2021/06/09 08:22:00;;;;;;;4.25;1.65;;;;;;;;;;5090900;28;20440;-84
2021/06/09 08:24:26;;;;;;;3.75;1.73;;;;;;;;;;5109498;28;20374;-80
2021/06/09 08:26:54;;;;;;;5.43;1.50;;;;;;;;;;5109623;28;20377;-80
2021/06/09 08:29:20;;;;;;;2.80;1.30;;;;;;;;;;5091646;28;20394;-79
2021/06/09 08:31:46;;;;;;;1.20;1.10;;;;;;;;;;5109861;28;20969;-84
2021/06/09 08:34:12;;;;;;;2.67;1.30;;;;;;;;;;5091246;28;20396;-86
2021/06/09 08:36:43;;;;;;;3.25;1.20;;;;;;;;;;5109222;28;20382;-84
2021/06/09 08:39:09;;;;;;;1.75;1.23;;;;;;;;;;5091389;28;20387;-85
2021/06/09 08:41:40;;;;;;;3.83;1.47;;;;;;;;;;5109171;28;20370;-85
2021/06/09 08:44:06;;;;;;;1.70;1.23;;;;;;;;;;5109675;28;20857;-83
2021/06/09 08:46:33;;;;;;;1.40;1.30;;;;;;;;;;5110158;28;20375;-82
2021/06/09 08:48:59;;;;;;;2.50;1.60;;;;;;;;;;5109571;28;20394;-84
2021/06/09 08:51:26;;;;;;;1.95;1.30;;;;;;;;;;5091116;28;20524;-80
2021/06/09 08:53:53;;;;;;;2.30;1.52;;;;;;;;;;5091443;28;20383;-87
2021/06/09 08:56:20;;;;;;;1.55;1.17;;;;;;;;;;5109398;28;20377;-81
2021/06/09 08:58:46;;;;;;;2.47;1.35;;;;;;;;;;5091004;28;20386;-86
2021/06/09 09:01:13;;;;;;;1.83;1.33;;;;;;;;;;5109477;28;20870;-80
2021/06/09 09:03:42;;;;;;;2.40;1.50;;;;;;;;;;5109093;28;20382;-80
2021/06/09 09:06:08;;;;;;;2.00;1.40;;;;;;;;;;5109575;28;20378;-83
2021/06/09 09:08:34;;;;;;;3.00;1.65;;;;;;;;;;5109601;28;20417;-84
2021/06/09 09:11:01;;;;;;;3.27;1.47;;;;;;;;;;5109328;28;20371;-84
2021/06/09 09:13:27;;;;;;;1.45;1.35;;;;;;;;;;5109096;28;20462;-78
2021/06/09 09:15:55;;;;;;;2.42;1.35;;;;;;;;;;5109086;28;20373;-79
2021/06/09 09:18:22;;;;;;;1.50;1.40;;;;;;;;;;5109005;28;20861;-82
2021/06/09 09:20:48;;;;;;;2.47;1.50;;;;;;;;;;5090961;28;20824;-81
2021/06/09 09:23:23;;;;;;;2.45;1.60;;;;;;;;;;5109006;28;20366;-87
2021/06/09 09:25:52;;;;;;;3.13;1.58;;;;;;;;;;5091265;28;20393;-86
2021/06/09 09:28:23;;;;;;;1.60;1.50;;;;;;;;;;5109042;28;20752;-80
2021/06/09 09:30:49;;;;;;;2.40;1.67;;;;;;;;;;5109250;28;20385;-82
2021/06/09 09:33:17;;;;;;;1.60;1.33;;;;;;;;;;5090902;28;20374;-81
2021/06/09 09:35:44;;;;;;;4.85;1.60;;;;;;;;;;5109018;28;20757;-84
2021/06/09 09:38:10;;;;;;;2.13;1.43;;;;;;;;;;5108392;28;20367;-83
2021/06/09 09:40:36;;;;;;;1.83;1.40;;;;;;;;;;5109587;28;20363;-79
2021/06/09 09:43:02;;;;;;;4.95;1.83;;;;;;;;;;5108314;28;20390;-80
2021/06/09 09:45:29;;;;;;;5.55;1.40;;;;;;;;;;5108806;28;20421;-85
2021/06/09 09:48:04;;;;;;;2.70;1.50;;;;;;;;;;5109062;28;20371;-82
2021/06/09 09:50:33;;;;;;;2.22;1.50;;;;;;;;;;5109278;28;20378;-78
2021/06/09 09:53:17;;;;;;;1.52;1.35;;;;;;;;;;5108988;28;20465;-79
2021/06/09 09:55:55;;;;;;;23.13;3.20;;;;;;;;;;5108887;28;20382;-86
2021/06/09 09:58:21;;;;;;;11.27;2.40;;;;;;;;;;5092172;28;20849;-85
2021/06/09 10:00:47;;;;;;;2.80;1.50;;;;;;;;;;5112679;28;20716;-82
2021/06/09 10:03:15;;;;;;;4.35;1.73;;;;;;;;;;5112093;28;20370;-85
2021/06/09 10:05:41;;;;;;;3.08;1.50;;;;;;;;;;5113226;28;20367;-79
2021/06/09 10:08:08;;;;;;;1.93;1.23;;;;;;;;;;5112161;28;20398;-81
2021/06/09 10:10:34;;;;;;;1.40;1.25;;;;;;;;;;5112499;28;20371;-78
2021/06/09 10:13:11;;;;;;;1.73;1.60;;;;;;;;;;5112772;28;20367;-87
2021/06/09 10:15:47;;;;;;;1.50;1.30;;;;;;;;;;5112145;28;20359;-82
2021/06/09 10:18:16;;;;;;;2.25;1.13;;;;;;;;;;5112050;28;20379;-81
2021/06/09 10:20:45;;;;;;;2.03;1.50;;;;;;;;;;5112234;28;20363;-81
2021/06/09 10:23:29;;;;;;;2.35;1.80;;;;;;;;;;5111724;28;20418;-82
2021/06/09 10:26:09;;;;;;;2.88;1.25;;;;;;;;;;5112243;28;20363;-83
2021/06/09 10:28:53;;;;;;;1.30;1.20;;;;;;;;;;5111708;28;20434;-85
2021/06/09 10:31:19;;;;;;;2.40;1.50;;;;;;;;;;5111855;28;20370;-84
2021/06/09 10:33:46;;;;;;;4.18;1.70;;;;;;;;;;5111925;28;20432;-86
2021/06/09 10:36:12;;;;;;;1.45;1.10;;;;;;;;;;5112069;28;20859;-82
2021/06/09 10:38:38;;;;;;;2.05;1.40;;;;;;;;;;5111689;28;20379;-83
2021/06/09 10:41:04;;;;;;;1.30;1.20;;;;;;;;;;5100191;28;20376;-83
2021/06/09 10:43:31;;;;;;;5.32;1.40;;;;;;;;;;5072130;28;20936;-83
2021/06/09 10:45:58;;;;;;;3.25;1.33;;;;;;;;;;5090814;28;20411;-88
2021/06/09 10:48:25;;;;;;;1.80;1.43;;;;;;;;;;5091828;28;20408;-82
2021/06/09 10:50:53;;;;;;;2.97;1.10;;;;;;;;;;5091727;28;20429;-80
2021/06/09 10:53:18;;;;;;;2.15;1.10;;;;;;;;;;5091073;28;20433;-81
2021/06/09 10:55:45;;;;;;;1.60;1.30;;;;;;;;;;5073230;28;20384;-80
2021/06/09 10:58:14;;;;;;;3.28;1.10;;;;;;;;;;5073404;28;20735;-79
2021/06/09 11:00:40;;;;;;;2.30;1.40;;;;;;;;;;5091236;28;20360;-83
2021/06/09 11:03:06;;;;;;;4.22;1.45;;;;;;;;;;5091450;28;20377;-85
2021/06/09 11:05:35;;;;;;;3.20;1.40;;;;;;;;;;5072859;28;20375;-81
2021/06/09 11:08:03;;;;;;;1.93;1.20;;;;;;;;;;5091264;28;20376;-86
2021/06/09 11:10:31;;;;;;;1.87;1.40;;;;;;;;;;5080028;28;20422;-82
2021/06/09 11:12:58;;;;;;;2.83;1.30;;;;;;;;;;5072726;28;20376;-86
2021/06/09 11:15:31;;;;;;;1.35;1.00;;;;;;;;;;5067948;28;20380;-81
2021/06/09 11:17:58;;;;;;;1.40;1.10;;;;;;;;;;5067978;28;20419;-84
2021/06/09 11:20:37;;;;;;;10.03;1.60;;;;;;;;;;5087427;28;20380;-84
2021/06/09 11:23:23;;;;;;;5.18;1.55;;;;;;;;;;5085947;28;20849;-85
2021/06/09 11:25:49;;;;;;;8.00;1.73;;;;;;;;;;5087171;28;20368;-83
2021/06/09 11:28:32;;;;;;;2.43;1.10;;;;;;;;;;5087356;28;20426;-80
2021/06/09 11:30:58;;;;;;;4.50;1.23;;;;;;;;;;5087339;28;20373;-87
2021/06/09 11:33:29;;;;;;;2.70;1.20;;;;;;;;;;5087830;28;20472;-85
2021/06/09 11:35:58;;;;;;;1.83;1.10;;;;;;;;;;5088067;28;20415;-82
2021/06/09 11:38:26;;;;;;;1.95;1.00;;;;;;;;;;5069219;28;20471;-82
2021/06/09 11:41:00;;;;;;;2.53;1.13;;;;;;;;;;5087273;28;20862;-80
2021/06/09 11:43:34;;;;;;;1.60;1.10;;;;;;;;;;5070262;28;20379;-85
2021/06/09 11:46:03;;;;;;;1.20;1.00;;;;;;;;;;5069422;28;20379;-81
2021/06/09 11:48:31;;;;;;;2.20;1.10;;;;;;;;;;5079176;28;20411;-83
2021/06/09 11:50:58;;;;;;;1.17;1.08;;;;;;;;;;5084327;28;20374;-83
2021/06/09 11:53:36;;;;;;;1.00;0.90;;;;;;;;;;5065378;28;20376;-87
2021/06/09 11:56:20;;;;;;;2.08;1.02;;;;;;;;;;5081337;28;20451;-83
2021/06/09 11:58:48;;;;;;;1.40;1.20;;;;;;;;;;5063577;28;20397;-81
2021/06/09 12:01:16;;;;;;;3.35;1.40;;;;;;;;;;5062623;28;20391;-81
2021/06/09 12:03:43;;;;;;;7.72;2.10;;;;;;;;;;5086067;28;20380;-84
2021/06/09 12:06:15;;;;;;;11.82;2.22;;;;;;;;;;5068079;28;20385;-85
2021/06/09 12:08:41;;;;;;;4.18;1.20;;;;;;;;;;5077126;28;20427;-83
2021/06/09 12:11:07;;;;;;;1.30;1.10;;;;;;;;;;5087462;28;20412;-82
2021/06/09 12:13:34;;;;;;;1.10;1.00;;;;;;;;;;5085855;28;20372;-85
2021/06/09 12:16:22;;;;;;;1.60;1.20;;;;;;;;;;5070850;28;20377;-83
2021/06/09 12:18:49;;;;;;;1.48;1.05;;;;;;;;;;5069905;28;20485;-84
2021/06/09 12:21:16;;;;;;;2.75;1.30;;;;;;;;;;5067413;28;20484;-77
2021/06/09 12:23:59;;;;;;;1.95;1.00;;;;;;;;;;5067948;28;21706;-80
2021/06/09 12:26:27;;;;;;;6.20;1.30;;;;;;;;;;5069363;28;20376;-84
2021/06/09 12:29:06;;;;;;;2.67;1.30;;;;;;;;;;5070584;28;21054;-83
2021/06/09 12:31:36;;;;;;;1.70;1.13;;;;;;;;;;5069646;28;20383;-80
2021/06/09 12:34:04;;;;;;;1.40;1.00;;;;;;;;;;5088894;28;20372;-84
2021/06/09 12:36:30;;;;;;;2.28;1.10;;;;;;;;;;5070156;28;20479;-82
2021/06/09 12:38:56;;;;;;;0.90;0.90;;;;;;;;;;5065128;28;20541;-79
2021/06/09 12:41:33;;;;;;;2.83;1.27;;;;;;;;;;5086905;28;20392;-86
2021/06/09 12:44:12;;;;;;;6.80;1.75;;;;;;;;;;5075550;28;20378;-85
2021/06/09 12:46:38;;;;;;;2.63;1.30;;;;;;;;;;5089120;28;20376;-84
2021/06/09 12:49:04;;;;;;;1.38;1.08;;;;;;;;;;5087973;28;20415;-83
2021/06/09 12:51:30;;;;;;;1.57;0.97;;;27.00;70.90;;;;;;5069801;28;20873;-85
2021/06/09 12:53:56;;;;;;;1.15;1.00;;;26.80;71.20;;;;;;5088998;28;20380;-83
2021/06/09 12:56:22;;;;;;;2.43;1.13;;;26.80;72.60;;;;;;5071117;28;20736;-84
2021/06/09 12:58:50;;;;;;;2.08;1.10;;;26.60;71.10;;;;;;5088726;28;20372;-81
2021/06/09 13:01:16;;;;;;;2.55;1.10;;;26.60;72.20;;;;;;5088795;28;20475;-82
2021/06/09 13:03:45;;;;;;;6.73;1.60;;;26.70;72.10;;;;;;5088408;28;20452;-84
2021/06/09 13:06:19;;;;;;;2.60;1.10;;;26.80;71.40;;;;;;5088581;28;20506;-81
2021/06/09 13:08:51;;;;;;;3.78;1.02;;;26.90;70.90;;;;;;5089630;28;20479;-87
2021/06/09 13:11:27;;;;;;;2.47;1.10;;;26.90;71.80;;;;;;5090427;28;20376;-87
2021/06/09 13:14:01;;;;;;;3.90;1.00;;;27.10;72.90;;;;;;5088970;28;20441;-86
2021/06/09 13:16:35;;;;;;;1.90;1.20;;;27.10;70.10;;;;;;5087615;28;20380;-85
2021/06/09 13:19:05;;;;;;;1.30;1.10;;;26.70;70.90;;;;;;5088937;28;20404;-81
2021/06/09 13:21:40;;;;;;;2.00;1.10;;;26.50;70.70;;;;;;5070686;28;20941;-81
2021/06/09 13:24:18;;;;;;;3.20;1.17;;;26.60;71.50;;;;;;5089231;28;20369;-82
2021/06/09 13:26:47;;;;;;;2.10;1.20;;;26.70;72.50;;;;;;5089280;28;20446;-83
2021/06/09 13:29:17;;;;;;;3.38;1.05;;;27.00;73.00;;;;;;5088737;28;20402;-87
2021/06/09 13:31:44;;;;;;;1.83;1.10;;;27.10;73.60;;;;;;5070858;28;20403;-81
2021/06/09 13:34:11;;;;;;;2.05;1.25;;;27.30;70.70;;;;;;5091749;28;20368;-84
2021/06/09 13:36:37;;;;;;;2.00;1.40;;;27.20;71.20;;;;;;5092744;28;20372;-80
2021/06/09 13:39:08;;;;;;;3.27;1.50;;;27.20;72.00;;;;;;5093020;28;20458;-83
2021/06/09 13:41:37;;;;;;;3.08;1.10;;;27.30;71.70;;;;;;5074649;28;20415;-83
2021/06/09 13:44:03;;;;;;;1.77;1.30;;;27.40;70.00;;;;;;5092815;28;20735;-83
2021/06/09 13:46:44;;;;;;;2.60;1.20;;;27.50;71.90;;;;;;5092805;28;20386;-80
2021/06/09 13:49:10;;;;;;;1.80;1.10;;;27.70;69.30;;;;;;5073972;28;20412;-80
2021/06/09 13:51:37;;;;;;;1.27;1.15;;;27.70;70.30;;;;;;5109144;28;20386;-84
2021/06/09 13:54:05;;;;;;;1.90;1.00;;;27.80;70.30;;;;;;5112676;28;20370;-85
2021/06/09 13:56:34;;;;;;;1.05;0.95;;;27.70;69.00;;;;;;5112613;28;20401;-82
2021/06/09 13:59:26;;;;;;;2.13;1.00;;;27.60;68.60;;;;;;5112934;28;20363;-82
2021/06/09 14:02:04;;;;;;;1.70;1.10;;;27.40;70.70;;;;;;5108051;28;20366;-81
2021/06/09 14:04:38;;;;;;;3.03;1.40;;;27.40;69.00;;;;;;5087002;28;20368;-82
2021/06/09 14:07:12;;;;;;;4.38;1.50;;;27.50;68.80;;;;;;5070898;28;20488;-79
2021/06/09 14:09:54;;;;;;;2.83;1.20;;;27.40;68.50;;;;;;5087807;28;20404;-82
2021/06/09 14:12:21;;;;;;;1.13;1.00;;;27.30;68.70;;;;;;5092380;28;20463;-83
2021/06/09 14:14:46;;;;;;;3.50;1.30;;;27.10;67.30;;;;;;5093525;28;20384;-81
2021/06/09 14:17:14;;;;;;;1.55;1.00;;;27.20;69.50;;;;;;5081962;28;20372;-79
2021/06/09 14:19:51;;;;;;;5.50;1.30;;;27.40;68.80;;;;;;5105864;28;20367;-82
2021/06/09 14:22:42;;;;;;;4.43;1.38;;;27.50;69.60;;;;;;5083284;28;20392;-78
2021/06/09 14:25:12;;;;;;;5.63;1.40;;;27.80;69.30;;;;;;5076969;28;20388;-82
2021/06/09 14:27:57;;;;;;;8.18;1.65;;;27.90;68.20;;;;;;5090743;28;20376;-84
2021/06/09 14:30:40;;;;;;;15.52;2.30;;;28.00;67.70;;;;;;5073166;28;20381;-83
2021/06/09 14:33:16;;;;;;;10.63;2.33;;;28.10;68.90;;;;;;5091475;28;20838;-82
2021/06/09 14:38:58;;;;;;;2.17;0.90;;;28.20;65.50;;;;;;5088667;28;20784;-81